createdAt,value
2016-12-22T00:00:01.654Z,974.71
2016-12-22T00:00:31.692Z,974.74
2016-12-22T00:01:01.730Z,974.71
2016-12-22T00:01:31.771Z,974.75
2016-12-22T00:02:01.856Z,974.71
2016-12-22T00:02:31.846Z,974.67
2016-12-22T00:03:01.883Z,974.66
2016-12-22T00:03:31.923Z,974.63
2016-12-22T00:04:01.959Z,974.69
2016-12-22T00:04:32.000Z,974.66
2016-12-22T00:05:02.238Z,974.72
2016-12-22T00:05:32.076Z,974.64
2016-12-22T00:06:02.116Z,974.7
2016-12-22T00:06:32.153Z,974.69
2016-12-22T00:07:02.193Z,974.68
2016-12-22T00:07:32.232Z,974.66
2016-12-22T00:08:02.266Z,974.66
2016-12-22T00:08:32.305Z,974.69
2016-12-22T00:09:02.396Z,974.69
2016-12-22T00:09:32.387Z,974.68
2016-12-22T00:10:02.425Z,974.72
2016-12-22T00:10:32.460Z,974.72
2016-12-22T00:11:02.549Z,974.69
2016-12-22T00:11:32.537Z,974.72
2016-12-22T00:12:02.577Z,974.75
2016-12-22T00:12:32.615Z,974.74
2016-12-22T00:13:02.653Z,974.73
2016-12-22T00:13:32.691Z,974.75
2016-12-22T00:14:02.729Z,974.75
2016-12-22T00:14:32.770Z,974.72
2016-12-22T00:15:02.806Z,974.76
2016-12-22T00:15:32.844Z,974.75
2016-12-22T00:16:02.885Z,974.79
2016-12-22T00:16:32.923Z,974.79
2016-12-22T00:17:02.960Z,974.76
2016-12-22T00:17:32.997Z,974.75
2016-12-22T00:18:03.037Z,974.74
2016-12-22T00:18:33.075Z,974.73
2016-12-22T00:19:03.114Z,974.71
2016-12-22T00:19:33.153Z,974.7
2016-12-22T00:20:03.191Z,974.68
2016-12-22T00:20:33.229Z,974.69
2016-12-22T00:21:03.268Z,974.68
2016-12-22T00:21:33.305Z,974.7
2016-12-22T00:22:03.347Z,974.71
2016-12-22T00:22:33.384Z,974.7
2016-12-22T00:23:03.422Z,974.68
2016-12-22T00:23:33.463Z,974.69
2016-12-22T00:24:03.499Z,974.66
2016-12-22T00:24:33.535Z,974.65
2016-12-22T00:25:03.574Z,974.68
2016-12-22T00:25:33.616Z,974.67
2016-12-22T00:26:03.655Z,974.66
2016-12-22T00:26:33.691Z,974.66
2016-12-22T00:27:03.731Z,974.64
2016-12-22T00:27:33.770Z,974.64
2016-12-22T00:28:03.807Z,974.63
2016-12-22T00:28:33.845Z,974.61
2016-12-22T00:29:03.881Z,974.64
2016-12-22T00:29:33.923Z,974.62
2016-12-22T00:30:03.959Z,974.64
2016-12-22T00:30:34.000Z,974.65
2016-12-22T00:31:04.035Z,974.63
2016-12-22T00:31:34.076Z,974.66
2016-12-22T00:32:04.115Z,974.65
2016-12-22T00:32:34.153Z,974.66
2016-12-22T00:33:04.191Z,974.64
2016-12-22T00:33:34.228Z,974.64
2016-12-22T00:34:04.268Z,974.6
2016-12-22T00:34:34.308Z,974.63
2016-12-22T00:35:04.345Z,974.63
2016-12-22T00:35:34.383Z,974.63
2016-12-22T00:36:04.425Z,974.65
2016-12-22T00:36:34.460Z,974.64
2016-12-22T00:37:04.499Z,974.66
2016-12-22T00:37:34.535Z,974.65
2016-12-22T00:38:04.574Z,974.65
2016-12-22T00:38:34.613Z,974.64
2016-12-22T00:39:04.653Z,974.64
2016-12-22T00:39:34.689Z,974.63
2016-12-22T00:40:04.732Z,974.65
2016-12-22T00:40:34.767Z,974.68
2016-12-22T00:41:04.808Z,974.66
2016-12-22T00:41:34.842Z,974.69
2016-12-22T00:42:04.883Z,974.68
2016-12-22T00:42:34.921Z,974.66
2016-12-22T00:43:04.960Z,974.67
2016-12-22T00:43:34.999Z,974.66
2016-12-22T00:44:05.037Z,974.64
2016-12-22T00:44:35.075Z,974.63
2016-12-22T00:45:05.116Z,974.66
2016-12-22T00:45:35.153Z,974.64
2016-12-22T00:46:05.193Z,974.59
2016-12-22T00:46:35.230Z,974.66
2016-12-22T00:47:05.266Z,974.64
2016-12-22T00:47:35.307Z,974.62
2016-12-22T00:48:05.344Z,974.67
2016-12-22T00:48:35.385Z,974.64
2016-12-22T00:49:05.422Z,974.65
2016-12-22T00:49:35.464Z,974.65
2016-12-22T00:50:05.499Z,974.66
2016-12-22T00:50:35.536Z,974.66
2016-12-22T00:51:05.574Z,974.68
2016-12-22T00:51:35.615Z,974.69
2016-12-22T00:52:05.650Z,974.7
2016-12-22T00:52:35.689Z,974.63
2016-12-22T00:53:05.726Z,974.72
2016-12-22T00:53:35.767Z,974.7
2016-12-22T00:54:05.806Z,974.73
2016-12-22T00:54:35.843Z,974.68
2016-12-22T00:55:05.881Z,974.76
2016-12-22T00:55:35.918Z,974.78
2016-12-22T00:56:05.958Z,974.81
2016-12-22T00:56:35.995Z,974.82
2016-12-22T00:57:06.034Z,974.78
2016-12-22T00:57:36.075Z,974.83
2016-12-22T00:58:06.112Z,974.81
2016-12-22T00:58:36.151Z,974.84
2016-12-22T00:59:06.192Z,974.77
2016-12-22T00:59:36.235Z,974.78
2016-12-22T01:00:06.268Z,974.86
2016-12-22T01:00:36.304Z,974.88
2016-12-22T01:01:06.343Z,974.89
2016-12-22T01:01:36.381Z,974.89
2016-12-22T01:02:06.417Z,974.9
2016-12-22T01:02:36.458Z,974.88
2016-12-22T01:03:06.504Z,974.91
2016-12-22T01:03:36.536Z,974.9
2016-12-22T01:04:06.577Z,974.9
2016-12-22T01:04:36.612Z,974.86
2016-12-22T01:05:06.652Z,974.91
2016-12-22T01:05:36.688Z,974.9
2016-12-22T01:06:06.731Z,974.95
2016-12-22T01:06:36.774Z,974.93
2016-12-22T01:07:06.805Z,974.93
2016-12-22T01:07:36.843Z,974.93
2016-12-22T01:08:06.881Z,974.98
2016-12-22T01:08:36.921Z,974.96
2016-12-22T01:09:06.960Z,974.97
2016-12-22T01:09:36.997Z,974.92
2016-12-22T01:10:07.043Z,974.92
2016-12-22T01:10:37.075Z,974.9
2016-12-22T01:11:07.113Z,974.93
2016-12-22T01:11:37.152Z,974.91
2016-12-22T01:12:07.191Z,974.9
2016-12-22T01:12:37.226Z,974.91
2016-12-22T01:13:07.266Z,974.91
2016-12-22T01:13:37.507Z,974.91
2016-12-22T01:14:07.344Z,974.9
2016-12-22T01:14:37.384Z,974.9
2016-12-22T01:15:07.423Z,974.91
2016-12-22T01:15:37.458Z,974.89
2016-12-22T01:16:07.502Z,974.85
2016-12-22T01:16:37.535Z,974.92
2016-12-22T01:17:07.574Z,974.92
2016-12-22T01:17:37.612Z,974.92
2016-12-22T01:18:07.649Z,974.89
2016-12-22T01:18:37.688Z,974.91
2016-12-22T01:19:07.727Z,974.93
2016-12-22T01:19:37.765Z,974.93
2016-12-22T01:20:07.805Z,974.92
2016-12-22T01:20:37.843Z,974.88
2016-12-22T01:21:07.879Z,974.93
2016-12-22T01:21:37.917Z,974.92
2016-12-22T01:22:07.956Z,974.92
2016-12-22T01:22:37.995Z,974.89
2016-12-22T01:23:08.033Z,974.9
2016-12-22T01:23:38.075Z,974.89
2016-12-22T01:24:08.112Z,974.91
2016-12-22T01:24:38.150Z,974.91
2016-12-22T01:25:08.188Z,974.88
2016-12-22T01:25:38.225Z,974.88
2016-12-22T01:26:08.263Z,974.87
2016-12-22T01:26:38.302Z,974.88
2016-12-22T01:27:08.343Z,974.86
2016-12-22T01:27:38.379Z,974.87
2016-12-22T01:28:08.416Z,974.82
2016-12-22T01:28:38.453Z,974.85
2016-12-22T01:29:08.495Z,974.85
2016-12-22T01:29:38.533Z,974.89
2016-12-22T01:30:08.572Z,974.87
2016-12-22T01:30:38.612Z,974.91
2016-12-22T01:31:08.650Z,974.88
2016-12-22T01:31:38.689Z,974.92
2016-12-22T01:32:08.726Z,974.93
2016-12-22T01:32:38.764Z,974.94
2016-12-22T01:33:08.803Z,974.92
2016-12-22T01:33:38.842Z,974.9
2016-12-22T01:34:08.881Z,974.93
2016-12-22T01:34:38.918Z,974.9
2016-12-22T01:35:08.956Z,974.92
2016-12-22T01:35:38.995Z,974.86
2016-12-22T01:36:09.034Z,974.88
2016-12-22T01:36:39.071Z,974.9
2016-12-22T01:37:09.111Z,974.86
2016-12-22T01:37:39.150Z,974.91
2016-12-22T01:38:09.187Z,974.89
2016-12-22T01:38:39.225Z,974.87
2016-12-22T01:39:09.264Z,974.89
2016-12-22T01:39:39.304Z,974.92
2016-12-22T01:40:09.344Z,974.92
2016-12-22T01:40:39.377Z,974.88
2016-12-22T01:41:09.417Z,974.95
2016-12-22T01:41:39.455Z,974.89
2016-12-22T01:42:09.493Z,974.95
2016-12-22T01:42:39.532Z,974.89
2016-12-22T01:43:09.570Z,974.96
2016-12-22T01:43:39.610Z,974.93
2016-12-22T01:44:09.647Z,974.95
2016-12-22T01:44:39.687Z,975.01
2016-12-22T01:45:09.725Z,975.01
2016-12-22T01:45:39.762Z,974.99
2016-12-22T01:46:09.802Z,975.02
2016-12-22T01:46:39.849Z,975.05
2016-12-22T01:47:09.880Z,975.02
2016-12-22T01:47:39.919Z,974.98
2016-12-22T01:48:09.954Z,975.03
2016-12-22T01:48:39.993Z,975.03
2016-12-22T01:49:10.032Z,975
2016-12-22T01:49:40.070Z,975.01
2016-12-22T01:50:10.107Z,975.02
2016-12-22T01:50:40.147Z,975.01
2016-12-22T01:51:10.186Z,974.98
2016-12-22T01:51:40.224Z,974.99
2016-12-22T01:52:10.262Z,974.98
2016-12-22T01:52:40.301Z,974.95
2016-12-22T01:53:10.339Z,974.93
2016-12-22T01:53:40.378Z,974.98
2016-12-22T01:54:10.417Z,974.98
2016-12-22T01:54:40.455Z,974.91
2016-12-22T01:55:10.492Z,974.97
2016-12-22T01:55:40.534Z,974.93
2016-12-22T01:56:10.570Z,974.9
2016-12-22T01:56:40.608Z,974.96
2016-12-22T01:57:10.647Z,974.95
2016-12-22T01:57:40.684Z,974.92
2016-12-22T01:58:10.722Z,974.96
2016-12-22T01:58:40.762Z,974.93
2016-12-22T01:59:10.801Z,974.92
2016-12-22T01:59:40.839Z,974.99
2016-12-22T02:00:10.878Z,974.98
2016-12-22T02:00:40.915Z,974.94
2016-12-22T02:01:10.954Z,974.93
2016-12-22T02:01:40.994Z,974.95
2016-12-22T02:02:11.029Z,974.92
2016-12-22T02:02:41.068Z,974.92
2016-12-22T02:03:11.109Z,974.9
2016-12-22T02:03:41.146Z,974.94
2016-12-22T02:04:11.186Z,974.95
2016-12-22T02:04:41.222Z,974.95
2016-12-22T02:05:11.261Z,974.94
2016-12-22T02:05:41.294Z,974.95
2016-12-22T02:06:11.342Z,974.94
2016-12-22T02:06:41.377Z,974.97
2016-12-22T02:07:11.413Z,974.93
2016-12-22T02:07:41.453Z,974.97
2016-12-22T02:08:11.491Z,974.96
2016-12-22T02:08:41.532Z,974.92
2016-12-22T02:09:11.566Z,974.93
2016-12-22T02:09:41.607Z,974.99
2016-12-22T02:10:11.644Z,974.96
2016-12-22T02:10:41.685Z,974.98
2016-12-22T02:11:11.721Z,974.98
2016-12-22T02:11:41.759Z,974.98
2016-12-22T02:12:11.799Z,975.02
2016-12-22T02:12:41.836Z,974.94
2016-12-22T02:13:11.874Z,974.97
2016-12-22T02:13:41.917Z,974.99
2016-12-22T02:14:11.951Z,974.97
2016-12-22T02:14:41.989Z,974.92
2016-12-22T02:15:12.030Z,974.97
2016-12-22T02:15:42.065Z,975
2016-12-22T02:16:12.106Z,975.03
2016-12-22T02:16:42.143Z,975
2016-12-22T02:17:12.184Z,974.97
2016-12-22T02:17:42.220Z,974.95
2016-12-22T02:18:12.261Z,974.97
2016-12-22T02:18:42.297Z,974.96
2016-12-22T02:19:12.336Z,974.95
2016-12-22T02:19:42.377Z,974.98
2016-12-22T02:20:12.413Z,974.95
2016-12-22T02:20:42.453Z,974.95
2016-12-22T02:21:12.490Z,974.92
2016-12-22T02:21:42.527Z,974.94
2016-12-22T02:22:12.565Z,974.96
2016-12-22T02:22:42.604Z,974.98
2016-12-22T02:23:12.645Z,974.98
2016-12-22T02:23:42.681Z,974.98
2016-12-22T02:24:12.719Z,975
2016-12-22T02:24:42.755Z,974.98
2016-12-22T02:25:12.798Z,975.01
2016-12-22T02:25:42.835Z,975
2016-12-22T02:26:12.875Z,975.01
2016-12-22T02:26:42.911Z,974.98
2016-12-22T02:27:12.948Z,975.02
2016-12-22T02:27:42.988Z,975.02
2016-12-22T02:28:13.027Z,974.95
2016-12-22T02:28:43.065Z,974.99
2016-12-22T02:29:13.104Z,975.01
2016-12-22T02:29:43.144Z,975.02
2016-12-22T02:30:13.282Z,975.04
2016-12-22T02:30:43.219Z,975.01
2016-12-22T02:31:13.258Z,975
2016-12-22T02:31:43.294Z,974.94
2016-12-22T02:32:13.334Z,974.96
2016-12-22T02:32:43.371Z,974.98
2016-12-22T02:33:13.410Z,974.99
2016-12-22T02:33:43.449Z,974.96
2016-12-22T02:34:13.496Z,974.99
2016-12-22T02:34:43.526Z,974.96
2016-12-22T02:35:13.563Z,974.95
2016-12-22T02:35:43.602Z,974.94
2016-12-22T02:36:13.641Z,974.93
2016-12-22T02:36:43.678Z,974.95
2016-12-22T02:37:13.719Z,974.93
2016-12-22T02:37:43.754Z,974.93
2016-12-22T02:38:13.794Z,974.9
2016-12-22T02:38:43.831Z,974.93
2016-12-22T02:39:13.874Z,974.95
2016-12-22T02:39:43.909Z,974.94
2016-12-22T02:40:13.949Z,974.93
2016-12-22T02:40:43.985Z,974.94
2016-12-22T02:41:14.026Z,974.95
2016-12-22T02:41:44.063Z,974.93
2016-12-22T02:42:14.103Z,974.9
2016-12-22T02:42:44.140Z,974.95
2016-12-22T02:43:14.189Z,974.92
2016-12-22T02:43:44.217Z,974.97
2016-12-22T02:44:14.253Z,975
2016-12-22T02:44:44.295Z,974.99
2016-12-22T02:45:14.333Z,974.97
2016-12-22T02:45:44.369Z,974.99
2016-12-22T02:46:14.409Z,974.97
2016-12-22T02:46:44.446Z,975.02
2016-12-22T02:47:14.484Z,975.02
2016-12-22T02:47:44.526Z,975.01
2016-12-22T02:48:14.560Z,974.96
2016-12-22T02:48:44.606Z,974.98
2016-12-22T02:49:14.638Z,975
2016-12-22T02:49:44.679Z,974.96
2016-12-22T02:50:14.715Z,975.02
2016-12-22T02:50:44.753Z,975.03
2016-12-22T02:51:14.792Z,974.98
2016-12-22T02:51:44.833Z,974.98
2016-12-22T02:52:14.866Z,975.01
2016-12-22T02:52:44.913Z,974.98
2016-12-22T02:53:14.946Z,975.02
2016-12-22T02:53:44.984Z,974.98
2016-12-22T02:54:15.020Z,974.96
2016-12-22T02:54:45.057Z,974.99
2016-12-22T02:55:15.099Z,975
2016-12-22T02:55:45.135Z,975.02
2016-12-22T02:56:15.174Z,975.01
2016-12-22T02:56:45.213Z,975
2016-12-22T02:57:15.253Z,974.96
2016-12-22T02:57:45.290Z,974.99
2016-12-22T02:58:15.329Z,974.94
2016-12-22T02:58:45.366Z,974.97
2016-12-22T02:59:15.406Z,974.95
2016-12-22T02:59:45.444Z,974.99
2016-12-22T03:00:15.485Z,974.97
2016-12-22T03:00:45.522Z,974.94
2016-12-22T03:01:15.559Z,974.99
2016-12-22T03:01:45.600Z,974.92
2016-12-22T03:02:15.636Z,974.96
2016-12-22T03:02:45.673Z,974.97
2016-12-22T03:03:15.710Z,974.97
2016-12-22T03:03:45.751Z,974.92
2016-12-22T03:04:15.787Z,974.98
2016-12-22T03:04:45.835Z,974.96
2016-12-22T03:05:15.867Z,974.93
2016-12-22T03:05:45.904Z,974.97
2016-12-22T03:06:15.941Z,974.95
2016-12-22T03:06:45.982Z,974.89
2016-12-22T03:07:16.020Z,974.85
2016-12-22T03:07:46.056Z,974.91
2016-12-22T03:08:16.097Z,974.92
2016-12-22T03:08:46.135Z,974.9
2016-12-22T03:09:16.173Z,974.91
2016-12-22T03:09:46.212Z,974.88
2016-12-22T03:10:16.252Z,974.89
2016-12-22T03:10:46.289Z,974.89
2016-12-22T03:11:16.336Z,974.89
2016-12-22T03:11:46.366Z,974.88
2016-12-22T03:12:16.403Z,974.85
2016-12-22T03:12:46.443Z,974.89
2016-12-22T03:13:16.481Z,974.87
2016-12-22T03:13:46.520Z,974.83
2016-12-22T03:14:16.558Z,974.86
2016-12-22T03:14:46.596Z,974.83
2016-12-22T03:15:16.635Z,974.8
2016-12-22T03:15:46.676Z,974.86
2016-12-22T03:16:16.709Z,974.84
2016-12-22T03:16:46.749Z,974.85
2016-12-22T03:17:16.791Z,974.86
2016-12-22T03:17:46.827Z,974.82
2016-12-22T03:18:16.864Z,974.83
2016-12-22T03:18:46.902Z,974.81
2016-12-22T03:19:16.939Z,974.86
2016-12-22T03:19:46.981Z,974.82
2016-12-22T03:20:17.015Z,974.84
2016-12-22T03:20:47.056Z,974.77
2016-12-22T03:21:17.094Z,974.82
2016-12-22T03:21:47.133Z,974.81
2016-12-22T03:22:17.170Z,974.8
2016-12-22T03:22:47.209Z,974.81
2016-12-22T03:23:17.248Z,974.76
2016-12-22T03:23:47.285Z,974.81
2016-12-22T03:24:17.325Z,974.82
2016-12-22T03:24:47.363Z,974.78
2016-12-22T03:25:17.401Z,974.77
2016-12-22T03:25:47.443Z,974.78
2016-12-22T03:26:17.478Z,974.76
2016-12-22T03:26:47.517Z,974.8
2016-12-22T03:27:17.556Z,974.75
2016-12-22T03:27:47.594Z,974.76
2016-12-22T03:28:17.632Z,974.73
2016-12-22T03:28:47.671Z,974.72
2016-12-22T03:29:17.708Z,974.7
2016-12-22T03:29:47.746Z,974.72
2016-12-22T03:30:17.784Z,974.71
2016-12-22T03:30:47.824Z,974.72
2016-12-22T03:31:17.874Z,974.68
2016-12-22T03:31:47.901Z,974.71
2016-12-22T03:32:17.939Z,974.68
2016-12-22T03:32:47.977Z,974.74
2016-12-22T03:33:18.017Z,974.73
2016-12-22T03:33:48.055Z,974.69
2016-12-22T03:34:18.092Z,974.77
2016-12-22T03:34:48.133Z,974.76
2016-12-22T03:35:18.169Z,974.76
2016-12-22T03:35:48.207Z,974.81
2016-12-22T03:36:18.245Z,974.78
2016-12-22T03:36:48.284Z,974.82
2016-12-22T03:37:18.323Z,974.8
2016-12-22T03:37:48.363Z,974.83
2016-12-22T03:38:18.399Z,974.87
2016-12-22T03:38:48.438Z,974.81
2016-12-22T03:39:18.475Z,974.83
2016-12-22T03:39:48.515Z,974.84
2016-12-22T03:40:18.552Z,974.84
2016-12-22T03:40:48.590Z,974.87
2016-12-22T03:41:18.629Z,974.88
2016-12-22T03:41:48.666Z,974.86
2016-12-22T03:42:18.704Z,974.89
2016-12-22T03:42:48.743Z,974.87
2016-12-22T03:43:18.783Z,974.91
2016-12-22T03:43:48.822Z,974.9
2016-12-22T03:44:18.858Z,974.92
2016-12-22T03:44:48.898Z,974.93
2016-12-22T03:45:18.938Z,974.9
2016-12-22T03:45:48.975Z,974.91
2016-12-22T03:46:19.013Z,974.89
2016-12-22T03:46:49.048Z,974.94
2016-12-22T03:47:19.089Z,974.96
2016-12-22T03:47:49.129Z,974.92
2016-12-22T03:48:19.165Z,974.94
2016-12-22T03:48:49.208Z,974.93
2016-12-22T03:49:19.243Z,974.95
2016-12-22T03:49:49.281Z,974.92
2016-12-22T03:50:19.317Z,974.92
2016-12-22T03:50:49.360Z,974.93
2016-12-22T03:51:19.396Z,974.93
2016-12-22T03:51:49.433Z,974.96
2016-12-22T03:52:19.471Z,974.94
2016-12-22T03:52:49.510Z,974.95
2016-12-22T03:53:19.549Z,975.01
2016-12-22T03:53:49.600Z,975.01
2016-12-22T03:54:19.625Z,974.99
2016-12-22T03:54:49.664Z,975.01
2016-12-22T03:55:19.707Z,975
2016-12-22T03:55:49.740Z,975.03
2016-12-22T03:56:19.777Z,975.02
2016-12-22T03:56:49.817Z,975.01
2016-12-22T03:57:19.853Z,975.01
2016-12-22T03:57:49.894Z,975.04
2016-12-22T03:58:19.934Z,975.04
2016-12-22T03:58:49.972Z,975.07
2016-12-22T03:59:20.008Z,975.07
2016-12-22T03:59:50.049Z,975.07
2016-12-22T04:00:20.087Z,975.07
2016-12-22T04:00:50.122Z,975.09
2016-12-22T04:01:20.162Z,975.07
2016-12-22T04:01:50.200Z,975.1
2016-12-22T04:02:20.242Z,975.12
2016-12-22T04:02:50.278Z,975.1
2016-12-22T04:03:20.318Z,975.09
2016-12-22T04:03:50.358Z,975.09
2016-12-22T04:04:20.392Z,975.06
2016-12-22T04:04:50.432Z,975.1
2016-12-22T04:05:20.468Z,975.09
2016-12-22T04:05:50.508Z,975.06
2016-12-22T04:06:20.549Z,975.05
2016-12-22T04:06:50.585Z,975.06
2016-12-22T04:07:20.624Z,975.09
2016-12-22T04:07:50.660Z,975.09
2016-12-22T04:08:20.701Z,975.11
2016-12-22T04:08:50.740Z,975.09
2016-12-22T04:09:20.774Z,975.08
2016-12-22T04:09:50.814Z,975.04
2016-12-22T04:10:20.852Z,975.09
2016-12-22T04:10:50.892Z,975.08
2016-12-22T04:11:20.930Z,975.07
2016-12-22T04:11:50.977Z,975.06
2016-12-22T04:12:21.007Z,975.07
2016-12-22T04:12:51.044Z,975.07
2016-12-22T04:13:21.085Z,975.07
2016-12-22T04:13:51.119Z,975.05
2016-12-22T04:14:21.159Z,975.03
2016-12-22T04:14:51.200Z,975.04
2016-12-22T04:15:21.236Z,975.02
2016-12-22T04:15:51.276Z,975.01
2016-12-22T04:16:21.314Z,975.03
2016-12-22T04:16:51.352Z,975
2016-12-22T04:17:21.391Z,975.03
2016-12-22T04:17:51.431Z,974.97
2016-12-22T04:18:21.467Z,975
2016-12-22T04:18:51.507Z,974.99
2016-12-22T04:19:21.543Z,974.98
2016-12-22T04:19:51.582Z,974.94
2016-12-22T04:20:21.625Z,974.96
2016-12-22T04:20:51.661Z,974.94
2016-12-22T04:21:21.699Z,974.93
2016-12-22T04:21:51.737Z,974.92
2016-12-22T04:22:21.774Z,974.95
2016-12-22T04:22:51.812Z,974.92
2016-12-22T04:23:21.852Z,974.88
2016-12-22T04:23:51.889Z,974.87
2016-12-22T04:24:21.929Z,974.9
2016-12-22T04:24:51.970Z,974.89
2016-12-22T04:25:22.005Z,974.94
2016-12-22T04:25:52.044Z,974.94
2016-12-22T04:26:22.083Z,974.94
2016-12-22T04:26:52.119Z,974.91
2016-12-22T04:27:22.159Z,974.86
2016-12-22T04:27:52.199Z,974.88
2016-12-22T04:28:22.234Z,974.89
2016-12-22T04:28:52.273Z,974.91
2016-12-22T04:29:22.312Z,974.87
2016-12-22T04:29:52.350Z,974.94
2016-12-22T04:30:22.387Z,974.92
2016-12-22T04:30:52.428Z,974.95
2016-12-22T04:31:22.473Z,974.95
2016-12-22T04:31:52.503Z,975
2016-12-22T04:32:22.548Z,974.99
2016-12-22T04:32:52.579Z,975.02
2016-12-22T04:33:22.617Z,975.03
2016-12-22T04:33:52.657Z,975
2016-12-22T04:34:22.692Z,975.03
2016-12-22T04:34:52.733Z,974.99
2016-12-22T04:35:22.773Z,974.97
2016-12-22T04:35:52.806Z,974.99
2016-12-22T04:36:22.849Z,975
2016-12-22T04:36:52.886Z,975.03
2016-12-22T04:37:22.926Z,974.97
2016-12-22T04:37:52.963Z,975.03
2016-12-22T04:38:23.000Z,975.03
2016-12-22T04:38:53.040Z,975.07
2016-12-22T04:39:23.081Z,975.06
2016-12-22T04:39:53.120Z,975.04
2016-12-22T04:40:23.157Z,975.02
2016-12-22T04:40:53.191Z,975.03
2016-12-22T04:41:23.232Z,975.03
2016-12-22T04:41:53.268Z,975.02
2016-12-22T04:42:23.312Z,975
2016-12-22T04:42:53.346Z,975.03
2016-12-22T04:43:23.383Z,974.98
2016-12-22T04:43:53.424Z,975.01
2016-12-22T04:44:23.462Z,974.99
2016-12-22T04:44:53.500Z,974.98
2016-12-22T04:45:23.539Z,974.97
2016-12-22T04:45:53.575Z,974.97
2016-12-22T04:46:23.614Z,974.95
2016-12-22T04:46:53.656Z,975
2016-12-22T04:47:23.691Z,975.02
2016-12-22T04:47:53.730Z,974.99
2016-12-22T04:48:23.770Z,975.02
2016-12-22T04:48:53.809Z,975.03
2016-12-22T04:49:23.845Z,975.01
2016-12-22T04:49:53.883Z,974.99
2016-12-22T04:50:23.922Z,975.01
2016-12-22T04:50:53.959Z,974.99
2016-12-22T04:51:23.998Z,975.05
2016-12-22T04:51:54.039Z,975.02
2016-12-22T04:52:24.074Z,975.04
2016-12-22T04:52:54.113Z,975.08
2016-12-22T04:53:24.152Z,975.1
2016-12-22T04:53:54.191Z,975.08
2016-12-22T04:54:24.230Z,975.1
2016-12-22T04:54:54.268Z,975.07
2016-12-22T04:55:24.305Z,975.1
2016-12-22T04:55:54.344Z,975.08
2016-12-22T04:56:24.382Z,975.11
2016-12-22T04:56:54.421Z,975.08
2016-12-22T04:57:24.459Z,975.07
2016-12-22T04:57:54.501Z,975.06
2016-12-22T04:58:24.536Z,975.07
2016-12-22T04:58:54.576Z,975.03
2016-12-22T04:59:24.615Z,975.07
2016-12-22T04:59:54.648Z,975.05
2016-12-22T05:00:24.690Z,975.05
2016-12-22T05:00:54.731Z,975.05
2016-12-22T05:01:24.767Z,975.08
2016-12-22T05:01:54.809Z,975.05
2016-12-22T05:02:24.842Z,975.11
2016-12-22T05:02:54.881Z,975.09
2016-12-22T05:03:24.919Z,975.07
2016-12-22T05:03:54.956Z,975.06
2016-12-22T05:04:24.995Z,975.1
2016-12-22T05:04:55.033Z,975.1
2016-12-22T05:05:25.078Z,975.09
2016-12-22T05:05:55.111Z,975.17
2016-12-22T05:06:25.149Z,975.14
2016-12-22T05:06:55.191Z,975.12
2016-12-22T05:07:25.226Z,975.16
2016-12-22T05:07:55.265Z,975.16
2016-12-22T05:08:25.303Z,975.18
2016-12-22T05:08:55.342Z,975.2
2016-12-22T05:09:25.381Z,975.21
2016-12-22T05:09:55.416Z,975.12
2016-12-22T05:10:25.461Z,975.19
2016-12-22T05:10:55.494Z,975.13
2016-12-22T05:11:25.535Z,975.19
2016-12-22T05:11:55.570Z,975.17
2016-12-22T05:12:25.611Z,975.19
2016-12-22T05:12:55.647Z,975.19
2016-12-22T05:13:25.686Z,975.2
2016-12-22T05:13:55.724Z,975.2
2016-12-22T05:14:25.764Z,975.19
2016-12-22T05:14:55.803Z,975.2
2016-12-22T05:15:25.841Z,975.18
2016-12-22T05:15:55.879Z,975.17
2016-12-22T05:16:25.915Z,975.21
2016-12-22T05:16:55.955Z,975.17
2016-12-22T05:17:25.992Z,975.21
2016-12-22T05:17:56.030Z,975.24
2016-12-22T05:18:26.069Z,975.23
2016-12-22T05:18:56.107Z,975.24
2016-12-22T05:19:26.148Z,975.22
2016-12-22T05:19:56.184Z,975.25
2016-12-22T05:20:26.220Z,975.22
2016-12-22T05:20:56.259Z,975.25
2016-12-22T05:21:26.298Z,975.24
2016-12-22T05:21:56.338Z,975.21
2016-12-22T05:22:26.376Z,975.23
2016-12-22T05:22:56.412Z,975.2
2016-12-22T05:23:26.452Z,975.21
2016-12-22T05:23:56.490Z,975.17
2016-12-22T05:24:26.531Z,975.19
2016-12-22T05:24:56.567Z,975.14
2016-12-22T05:25:26.607Z,975.16
2016-12-22T05:25:56.644Z,975.17
2016-12-22T05:26:26.683Z,975.21
2016-12-22T05:26:56.722Z,975.19
2016-12-22T05:27:26.760Z,975.19
2016-12-22T05:27:56.797Z,975.16
2016-12-22T05:28:26.836Z,975.19
2016-12-22T05:28:56.874Z,975.14
2016-12-22T05:29:26.913Z,975.17
2016-12-22T05:29:56.949Z,975.14
2016-12-22T05:30:26.989Z,975.13
2016-12-22T05:30:57.028Z,975.13
2016-12-22T05:31:27.068Z,975.12
2016-12-22T05:31:57.104Z,975.13
2016-12-22T05:32:27.143Z,975.12
2016-12-22T05:32:57.182Z,975.11
2016-12-22T05:33:27.219Z,975.06
2016-12-22T05:33:57.258Z,975.08
2016-12-22T05:34:27.298Z,975.11
2016-12-22T05:34:57.337Z,975.11
2016-12-22T05:35:27.373Z,975.09
2016-12-22T05:35:57.412Z,975.06
2016-12-22T05:36:27.450Z,975.09
2016-12-22T05:36:57.489Z,975.08
2016-12-22T05:37:27.526Z,975.08
2016-12-22T05:37:57.563Z,975.03
2016-12-22T05:38:27.603Z,975.01
2016-12-22T05:38:57.643Z,975.07
2016-12-22T05:39:27.681Z,975.04
2016-12-22T05:39:57.717Z,975.06
2016-12-22T05:40:27.756Z,975.07
2016-12-22T05:40:57.793Z,975.06
2016-12-22T05:41:27.835Z,975.07
2016-12-22T05:41:57.870Z,975.09
2016-12-22T05:42:27.911Z,975.09
2016-12-22T05:42:57.948Z,975.07
2016-12-22T05:43:27.987Z,975.03
2016-12-22T05:43:58.025Z,975.1
2016-12-22T05:44:28.064Z,975.12
2016-12-22T05:44:58.101Z,975.06
2016-12-22T05:45:28.141Z,975.11
2016-12-22T05:45:58.182Z,975.12
2016-12-22T05:46:28.218Z,975.12
2016-12-22T05:46:58.255Z,975.1
2016-12-22T05:47:28.293Z,975.15
2016-12-22T05:47:58.332Z,975.17
2016-12-22T05:48:28.373Z,975.17
2016-12-22T05:48:58.409Z,975.18
2016-12-22T05:49:28.450Z,975.22
2016-12-22T05:49:58.487Z,975.17
2016-12-22T05:50:28.524Z,975.17
2016-12-22T05:50:58.563Z,975.21
2016-12-22T05:51:28.601Z,975.2
2016-12-22T05:51:58.639Z,975.21
2016-12-22T05:52:28.680Z,975.22
2016-12-22T05:52:58.718Z,975.22
2016-12-22T05:53:28.753Z,975.27
2016-12-22T05:53:58.793Z,975.27
2016-12-22T05:54:28.831Z,975.3
2016-12-22T05:54:58.868Z,975.32
2016-12-22T05:55:28.907Z,975.33
2016-12-22T05:55:58.945Z,975.35
2016-12-22T05:56:28.985Z,975.38
2016-12-22T05:56:59.021Z,975.38
2016-12-22T05:57:29.060Z,975.4
2016-12-22T05:57:59.101Z,975.44
2016-12-22T05:58:29.137Z,975.45
2016-12-22T05:58:59.176Z,975.43
2016-12-22T05:59:29.213Z,975.48
2016-12-22T05:59:59.253Z,975.46
2016-12-22T06:00:29.290Z,975.45
2016-12-22T06:00:59.328Z,975.42
2016-12-22T06:01:29.366Z,975.44
2016-12-22T06:01:59.404Z,975.45
2016-12-22T06:02:29.444Z,975.47
2016-12-22T06:02:59.482Z,975.43
2016-12-22T06:03:29.520Z,975.41
2016-12-22T06:03:59.557Z,975.44
2016-12-22T06:04:29.597Z,975.34
2016-12-22T06:04:59.644Z,975.39
2016-12-22T06:05:29.674Z,975.42
2016-12-22T06:05:59.711Z,975.39
2016-12-22T06:06:29.748Z,975.41
2016-12-22T06:06:59.789Z,975.4
2016-12-22T06:07:29.826Z,975.45
2016-12-22T06:07:59.863Z,975.43
2016-12-22T06:08:29.902Z,975.49
2016-12-22T06:08:59.942Z,975.47
2016-12-22T06:09:29.981Z,975.44
2016-12-22T06:10:00.020Z,975.53
2016-12-22T06:10:30.063Z,975.5
2016-12-22T06:11:00.092Z,975.5
2016-12-22T06:11:30.133Z,975.48
2016-12-22T06:12:00.173Z,975.49
2016-12-22T06:12:30.209Z,975.46
2016-12-22T06:13:00.249Z,975.5
2016-12-22T06:13:30.287Z,975.51
2016-12-22T06:14:00.325Z,975.46
2016-12-22T06:14:30.363Z,975.48
2016-12-22T06:15:00.402Z,975.45
2016-12-22T06:15:30.439Z,975.49
2016-12-22T06:16:00.479Z,975.48